logo
Rechercher aéroport 
image banner adimage banner adimage banner ad
image banner ad

FWMC - Mchinji

Situé à Mchinji, Malawi

ICAO - FWMC, IATA -

Données fournies par Airmate  

Information générale

Coordonnées: S13°48'0" E32°54'0"
Élévation : 3901 feet MSL.
 
Voir autres Aéroports à Mchinji

Données opérationnelles

Special qualification required
Heure actuelle UTC:
Heure actuelle locale:
Météo à : FLCP - Chipata ( 43 km )
TAF: TAF FLCP 281000Z 2812/2918 16005KT CAVOK
Voir NOTAMs / SUP AIP / TFR affectant cet aéroport [VIEW]
Fréquences de communication: [VIEW]

Pistes:

Identifiant RWYQFULongueur (ft)Largeur (ft)SurfaceLDA (ft)
1500UNK
3300UNK

Coordonnées de l'aéroport

Adresse: Mchinji Malawi

Vue satellite de FWMC